sensor_id;sensor_type;location;lat;lon;timestamp;pressure;altitude;pressure_sealevel;temperature;humidity
10464;BME280;5279;42.048;24.638;2023-12-29T00:00:47;98075.56;;;5.59;66.89
10464;BME280;5279;42.048;24.638;2023-12-29T00:03:14;98076.47;;;5.58;67.59
10464;BME280;5279;42.048;24.638;2023-12-29T00:05:42;98071.44;;;5.55;67.39
10464;BME280;5279;42.048;24.638;2023-12-29T00:08:09;98067.53;;;5.60;66.34
10464;BME280;5279;42.048;24.638;2023-12-29T00:10:36;98068.41;;;5.61;65.81
10464;BME280;5279;42.048;24.638;2023-12-29T00:13:03;98064.41;;;5.68;65.96
10464;BME280;5279;42.048;24.638;2023-12-29T00:15:29;98066.28;;;5.66;66.05
10464;BME280;5279;42.048;24.638;2023-12-29T00:17:56;98057.69;;;5.76;65.89
10464;BME280;5279;42.048;24.638;2023-12-29T00:20:23;98051.38;;;5.79;66.36
10464;BME280;5279;42.048;24.638;2023-12-29T00:22:50;98044.22;;;5.81;66.06
10464;BME280;5279;42.048;24.638;2023-12-29T00:25:16;98056.22;;;5.85;66.63
10464;BME280;5279;42.048;24.638;2023-12-29T00:27:43;98045.91;;;5.82;66.63
10464;BME280;5279;42.048;24.638;2023-12-29T00:30:10;98051.78;;;5.73;67.06
10464;BME280;5279;42.048;24.638;2023-12-29T00:32:37;98048.53;;;5.82;66.58
10464;BME280;5279;42.048;24.638;2023-12-29T00:35:04;98041.00;;;5.90;66.44
10464;BME280;5279;42.048;24.638;2023-12-29T00:37:31;98037.94;;;5.96;65.21
10464;BME280;5279;42.048;24.638;2023-12-29T00:39:59;98053.50;;;5.99;64.15
10464;BME280;5279;42.048;24.638;2023-12-29T00:42:26;98041.34;;;6.11;63.42
10464;BME280;5279;42.048;24.638;2023-12-29T00:44:52;98046.97;;;6.17;63.57
10464;BME280;5279;42.048;24.638;2023-12-29T00:47:19;98036.03;;;6.23;62.98
10464;BME280;5279;42.048;24.638;2023-12-29T00:49:48;98031.94;;;6.32;62.99
10464;BME280;5279;42.048;24.638;2023-12-29T00:52:15;98028.47;;;6.31;63.52
10464;BME280;5279;42.048;24.638;2023-12-29T00:54:42;98027.00;;;6.27;63.53
10464;BME280;5279;42.048;24.638;2023-12-29T00:57:10;98023.84;;;6.22;63.94
10464;BME280;5279;42.048;24.638;2023-12-29T00:59:37;98033.53;;;5.96;65.72
10464;BME280;5279;42.048;24.638;2023-12-29T01:02:04;98033.03;;;6.04;65.03
10464;BME280;5279;42.048;24.638;2023-12-29T01:04:31;98032.47;;;5.99;65.51
10464;BME280;5279;42.048;24.638;2023-12-29T01:06:57;98020.09;;;6.01;64.27
10464;BME280;5279;42.048;24.638;2023-12-29T01:09:26;98013.97;;;5.88;64.96
10464;BME280;5279;42.048;24.638;2023-12-29T01:11:53;98012.69;;;6.06;64.64
10464;BME280;5279;42.048;24.638;2023-12-29T01:14:21;98002.81;;;6.10;64.97
10464;BME280;5279;42.048;24.638;2023-12-29T01:16:48;98004.66;;;6.20;61.89
10464;BME280;5279;42.048;24.638;2023-12-29T01:19:14;98000.47;;;6.30;60.78
10464;BME280;5279;42.048;24.638;2023-12-29T01:21:41;97992.25;;;6.35;61.79
10464;BME280;5279;42.048;24.638;2023-12-29T01:24:08;97989.50;;;6.36;61.85
10464;BME280;5279;42.048;24.638;2023-12-29T01:26:37;97988.00;;;6.45;61.14
10464;BME280;5279;42.048;24.638;2023-12-29T01:29:04;97980.22;;;6.43;61.01
10464;BME280;5279;42.048;24.638;2023-12-29T01:31:32;97980.34;;;6.29;61.37
10464;BME280;5279;42.048;24.638;2023-12-29T01:33:59;97985.00;;;6.26;61.73
10464;BME280;5279;42.048;24.638;2023-12-29T01:37:03;97982.97;;;6.29;62.05
10464;BME280;5279;42.048;24.638;2023-12-29T01:39:30;97991.00;;;6.28;62.63
10464;BME280;5279;42.048;24.638;2023-12-29T01:41:56;97981.75;;;6.22;63.58
10464;BME280;5279;42.048;24.638;2023-12-29T01:44:38;97985.75;;;6.15;63.44
10464;BME280;5279;42.048;24.638;2023-12-29T01:47:12;97976.38;;;6.11;63.30
10464;BME280;5279;42.048;24.638;2023-12-29T01:49:40;97984.31;;;5.98;62.64
10464;BME280;5279;42.048;24.638;2023-12-29T01:52:07;97970.59;;;6.06;63.09
10464;BME280;5279;42.048;24.638;2023-12-29T01:54:35;97977.03;;;5.77;62.85
10464;BME280;5279;42.048;24.638;2023-12-29T01:57:04;97977.53;;;5.82;62.76
10464;BME280;5279;42.048;24.638;2023-12-29T01:59:31;97974.19;;;5.80;64.60
10464;BME280;5279;42.048;24.638;2023-12-29T02:01:58;97978.91;;;5.75;64.63
10464;BME280;5279;42.048;24.638;2023-12-29T02:04:26;97981.44;;;5.76;63.92
10464;BME280;5279;42.048;24.638;2023-12-29T02:06:53;97981.13;;;5.81;62.83
10464;BME280;5279;42.048;24.638;2023-12-29T02:09:21;97980.72;;;5.87;62.49
10464;BME280;5279;42.048;24.638;2023-12-29T02:11:48;97987.16;;;5.95;60.28
10464;BME280;5279;42.048;24.638;2023-12-29T02:14:15;97971.25;;;5.97;61.78
10464;BME280;5279;42.048;24.638;2023-12-29T02:16:46;97978.63;;;6.04;62.04
10464;BME280;5279;42.048;24.638;2023-12-29T02:19:31;97973.22;;;5.81;63.63
10464;BME280;5279;42.048;24.638;2023-12-29T02:22:03;97977.53;;;5.82;62.52
10464;BME280;5279;42.048;24.638;2023-12-29T02:24:30;97973.22;;;5.81;61.89
10464;BME280;5279;42.048;24.638;2023-12-29T02:27:03;97968.31;;;5.89;61.46
10464;BME280;5279;42.048;24.638;2023-12-29T02:29:33;97975.03;;;5.93;60.49
10464;BME280;5279;42.048;24.638;2023-12-29T02:32:02;97977.16;;;6.00;61.17
10464;BME280;5279;42.048;24.638;2023-12-29T02:34:32;97975.66;;;5.96;62.17
10464;BME280;5279;42.048;24.638;2023-12-29T02:36:59;97970.41;;;5.96;61.89
10464;BME280;5279;42.048;24.638;2023-12-29T02:39:26;97964.50;;;5.93;62.34
10464;BME280;5279;42.048;24.638;2023-12-29T02:41:53;97969.78;;;5.93;62.70
10464;BME280;5279;42.048;24.638;2023-12-29T02:44:21;97971.16;;;5.86;62.00
10464;BME280;5279;42.048;24.638;2023-12-29T02:46:48;97972.94;;;5.73;60.81
10464;BME280;5279;42.048;24.638;2023-12-29T02:49:16;97957.66;;;5.78;61.38
10464;BME280;5279;42.048;24.638;2023-12-29T02:51:42;97961.78;;;5.82;61.27
10464;BME280;5279;42.048;24.638;2023-12-29T02:54:11;97957.22;;;5.84;61.27
10464;BME280;5279;42.048;24.638;2023-12-29T02:56:38;97964.09;;;5.74;62.26
10464;BME280;5279;42.048;24.638;2023-12-29T02:59:04;97952.75;;;5.73;62.54
10464;BME280;5279;42.048;24.638;2023-12-29T03:01:33;97956.72;;;5.66;61.87
10464;BME280;5279;42.048;24.638;2023-12-29T03:04:00;97950.75;;;5.64;60.65
10464;BME280;5279;42.048;24.638;2023-12-29T03:06:27;97935.69;;;5.66;61.23
10464;BME280;5279;42.048;24.638;2023-12-29T03:08:54;97936.31;;;5.70;60.71
10464;BME280;5279;42.048;24.638;2023-12-29T03:11:20;97925.81;;;5.70;61.03
10464;BME280;5279;42.048;24.638;2023-12-29T03:13:47;97918.66;;;5.72;61.35
10464;BME280;5279;42.048;24.638;2023-12-29T03:16:14;97924.34;;;5.66;62.55
10464;BME280;5279;42.048;24.638;2023-12-29T03:18:42;97921.41;;;5.70;62.39
10464;BME280;5279;42.048;24.638;2023-12-29T03:21:08;97928.34;;;5.59;61.03
10464;BME280;5279;42.048;24.638;2023-12-29T03:23:35;97919.06;;;5.66;62.18
10464;BME280;5279;42.048;24.638;2023-12-29T03:26:02;97927.28;;;5.74;60.97
10464;BME280;5279;42.048;24.638;2023-12-29T03:28:29;97919.69;;;5.82;60.85
10464;BME280;5279;42.048;24.638;2023-12-29T03:30:56;97919.47;;;5.85;61.13
10464;BME280;5279;42.048;24.638;2023-12-29T03:33:22;97925.28;;;5.90;61.60
10464;BME280;5279;42.048;24.638;2023-12-29T03:35:50;97921.41;;;5.83;62.76
10464;BME280;5279;42.048;24.638;2023-12-29T03:38:17;97924.09;;;5.81;61.63
10464;BME280;5279;42.048;24.638;2023-12-29T03:40:44;97919.69;;;5.82;61.54
10464;BME280;5279;42.048;24.638;2023-12-29T03:43:11;97924.75;;;5.85;59.95
10464;BME280;5279;42.048;24.638;2023-12-29T03:45:37;97930.75;;;5.87;61.61
10464;BME280;5279;42.048;24.638;2023-12-29T03:48:04;97921.72;;;5.91;62.53
10464;BME280;5279;42.048;24.638;2023-12-29T03:50:31;97919.47;;;5.85;62.99
10464;BME280;5279;42.048;24.638;2023-12-29T03:52:59;97922.56;;;5.91;61.19
10464;BME280;5279;42.048;24.638;2023-12-29T03:55:26;97918.25;;;5.90;62.80
10464;BME280;5279;42.048;24.638;2023-12-29T03:57:53;97916.38;;;5.92;62.40
10464;BME280;5279;42.048;24.638;2023-12-29T04:00:20;97914.22;;;5.85;62.93
10464;BME280;5279;42.048;24.638;2023-12-29T04:02:46;97907.84;;;5.89;61.53
10464;BME280;5279;42.048;24.638;2023-12-29T04:05:13;97899.53;;;5.95;60.16
10464;BME280;5279;42.048;24.638;2023-12-29T04:07:40;97893.81;;;6.01;61.14
10464;BME280;5279;42.048;24.638;2023-12-29T04:10:08;97887.81;;;5.99;62.50
10464;BME280;5279;42.048;24.638;2023-12-29T04:12:36;97890.78;;;5.94;62.80
10464;BME280;5279;42.048;24.638;2023-12-29T04:15:03;97885.41;;;5.96;62.70
10464;BME280;5279;42.048;24.638;2023-12-29T04:17:30;97880.53;;;6.02;60.65
10464;BME280;5279;42.048;24.638;2023-12-29T04:19:57;97877.66;;;6.18;59.55
10464;BME280;5279;42.048;24.638;2023-12-29T04:22:25;97876.91;;;6.29;59.83
10464;BME280;5279;42.048;24.638;2023-12-29T04:24:52;97873.41;;;6.28;59.00
10464;BME280;5279;42.048;24.638;2023-12-29T04:27:21;97879.41;;;6.30;59.42
10464;BME280;5279;42.048;24.638;2023-12-29T04:29:47;97884.00;;;6.39;56.91
10464;BME280;5279;42.048;24.638;2023-12-29T04:32:14;97887.75;;;6.48;56.52
10464;BME280;5279;42.048;24.638;2023-12-29T04:34:41;97886.25;;;6.56;57.51
10464;BME280;5279;42.048;24.638;2023-12-29T04:37:07;97885.81;;;6.63;57.99
10464;BME280;5279;42.048;24.638;2023-12-29T04:39:34;97887.47;;;6.64;58.01
10464;BME280;5279;42.048;24.638;2023-12-29T04:42:01;97890.44;;;6.59;59.09
10464;BME280;5279;42.048;24.638;2023-12-29T04:44:29;97887.34;;;6.41;59.33
10464;BME280;5279;42.048;24.638;2023-12-29T04:46:56;97888.53;;;6.37;60.44
10464;BME280;5279;42.048;24.638;2023-12-29T04:49:22;97894.75;;;6.36;59.54
10464;BME280;5279;42.048;24.638;2023-12-29T04:51:49;97889.72;;;6.33;58.85
10464;BME280;5279;42.048;24.638;2023-12-29T04:54:16;97889.25;;;6.39;59.18
10464;BME280;5279;42.048;24.638;2023-12-29T04:56:42;97889.88;;;6.19;61.59
10464;BME280;5279;42.048;24.638;2023-12-29T04:59:09;97883.59;;;6.09;61.42
10464;BME280;5279;42.048;24.638;2023-12-29T05:01:37;97890.22;;;6.02;61.47
10464;BME280;5279;42.048;24.638;2023-12-29T05:04:04;97887.72;;;6.00;61.58
10464;BME280;5279;42.048;24.638;2023-12-29T05:06:30;97893.59;;;6.04;61.14
10464;BME280;5279;42.048;24.638;2023-12-29T05:08:57;97902.22;;;6.06;60.98
10464;BME280;5279;42.048;24.638;2023-12-29T05:11:24;97896.75;;;6.09;59.88
10464;BME280;5279;42.048;24.638;2023-12-29T05:13:51;97892.19;;;6.11;59.81
10464;BME280;5279;42.048;24.638;2023-12-29T05:16:17;97896.53;;;6.12;60.00
10464;BME280;5279;42.048;24.638;2023-12-29T05:18:45;97900.75;;;6.02;58.36
10464;BME280;5279;42.048;24.638;2023-12-29T05:21:16;97895.88;;;6.09;58.10
10464;BME280;5279;42.048;24.638;2023-12-29T05:23:43;97896.06;;;6.18;58.34
10464;BME280;5279;42.048;24.638;2023-12-29T05:26:10;97889.66;;;6.22;58.63
10464;BME280;5279;42.048;24.638;2023-12-29T05:28:37;97885.38;;;6.09;59.91
10464;BME280;5279;42.048;24.638;2023-12-29T05:31:03;97886.44;;;6.06;59.82
10464;BME280;5279;42.048;24.638;2023-12-29T05:33:30;97889.19;;;6.04;60.53
10464;BME280;5279;42.048;24.638;2023-12-29T05:35:59;97880.44;;;6.04;60.37
10464;BME280;5279;42.048;24.638;2023-12-29T05:38:25;97878.09;;;6.12;59.32
10464;BME280;5279;42.048;24.638;2023-12-29T05:40:52;97884.09;;;6.14;59.35
10464;BME280;5279;42.048;24.638;2023-12-29T05:43:19;97891.53;;;6.20;57.54
10464;BME280;5279;42.048;24.638;2023-12-29T05:45:46;97877.94;;;6.26;57.99
10464;BME280;5279;42.048;24.638;2023-12-29T05:48:13;97881.53;;;6.25;58.72
10464;BME280;5279;42.048;24.638;2023-12-29T05:50:39;97881.09;;;6.31;57.45
10464;BME280;5279;42.048;24.638;2023-12-29T05:53:08;97893.22;;;6.21;58.11
10464;BME280;5279;42.048;24.638;2023-12-29T05:55:34;97903.44;;;6.26;59.02
10464;BME280;5279;42.048;24.638;2023-12-29T05:58:01;97897.31;;;6.01;61.00
10464;BME280;5279;42.048;24.638;2023-12-29T06:00:28;97904.88;;;5.93;61.92
10464;BME280;5279;42.048;24.638;2023-12-29T06:02:55;97919.81;;;5.93;62.00
10464;BME280;5279;42.048;24.638;2023-12-29T06:05:22;97915.31;;;5.95;61.09
10464;BME280;5279;42.048;24.638;2023-12-29T06:07:48;97913.09;;;5.89;61.99
10464;BME280;5279;42.048;24.638;2023-12-29T06:10:17;97919.31;;;5.88;61.76
10464;BME280;5279;42.048;24.638;2023-12-29T06:12:43;97921.41;;;5.83;61.20
10464;BME280;5279;42.048;24.638;2023-12-29T06:15:12;97920.16;;;5.88;60.82
10464;BME280;5279;42.048;24.638;2023-12-29T06:17:39;97934.88;;;5.91;60.30
10464;BME280;5279;42.048;24.638;2023-12-29T06:20:07;97925.19;;;5.66;59.83
10464;BME280;5279;42.048;24.638;2023-12-29T06:22:39;97933.81;;;5.68;59.85
10464;BME280;5279;42.048;24.638;2023-12-29T06:25:09;97928.75;;;5.78;60.15
10464;BME280;5279;42.048;24.638;2023-12-29T06:27:37;97930.44;;;5.79;61.93
10464;BME280;5279;42.048;24.638;2023-12-29T06:30:05;97922.53;;;5.79;62.18
10464;BME280;5279;42.048;24.638;2023-12-29T06:32:32;97926.22;;;5.76;62.07
10464;BME280;5279;42.048;24.638;2023-12-29T06:34:59;97929.28;;;5.83;62.00
10464;BME280;5279;42.048;24.638;2023-12-29T06:37:44;97924.03;;;5.83;61.89
10464;BME280;5279;42.048;24.638;2023-12-29T06:40:11;97920.56;;;5.70;61.69
10464;BME280;5279;42.048;24.638;2023-12-29T06:42:39;97920.56;;;5.70;60.57
10464;BME280;5279;42.048;24.638;2023-12-29T06:45:07;97916.97;;;5.96;58.87
10464;BME280;5279;42.048;24.638;2023-12-29T06:47:34;97916.25;;;6.30;58.75
10464;BME280;5279;42.048;24.638;2023-12-29T06:50:01;97916.50;;;6.75;58.54
10464;BME280;5279;42.048;24.638;2023-12-29T06:52:28;97907.78;;;7.20;60.08
10464;BME280;5279;42.048;24.638;2023-12-29T06:54:59;97901.81;;;7.40;55.97
10464;BME280;5279;42.048;24.638;2023-12-29T06:57:26;97899.09;;;7.64;54.27
10464;BME280;5279;42.048;24.638;2023-12-29T06:59:55;97900.88;;;7.86;53.12
10464;BME280;5279;42.048;24.638;2023-12-29T07:02:22;97905.19;;;8.09;52.25
10464;BME280;5279;42.048;24.638;2023-12-29T07:04:48;97904.84;;;8.36;51.17
10464;BME280;5279;42.048;24.638;2023-12-29T07:07:15;97905.28;;;8.84;52.63
10464;BME280;5279;42.048;24.638;2023-12-29T07:09:42;97900.19;;;9.12;53.42
10464;BME280;5279;42.048;24.638;2023-12-29T07:12:09;97902.38;;;9.49;51.68
10464;BME280;5279;42.048;24.638;2023-12-29T07:14:36;97896.47;;;9.86;52.17
10464;BME280;5279;42.048;24.638;2023-12-29T07:17:04;97903.88;;;10.23;49.93
10464;BME280;5279;42.048;24.638;2023-12-29T07:19:31;97900.03;;;10.56;48.97
10464;BME280;5279;42.048;24.638;2023-12-29T07:22:02;97896.16;;;10.69;46.79
10464;BME280;5279;42.048;24.638;2023-12-29T07:24:30;97902.84;;;10.73;46.69
10464;BME280;5279;42.048;24.638;2023-12-29T07:26:57;97901.16;;;10.91;46.34
10464;BME280;5279;42.048;24.638;2023-12-29T07:29:24;97894.47;;;11.07;46.14
10464;BME280;5279;42.048;24.638;2023-12-29T07:31:50;97899.22;;;11.13;48.91
10464;BME280;5279;42.048;24.638;2023-12-29T07:34:19;97895.56;;;11.33;47.72
10464;BME280;5279;42.048;24.638;2023-12-29T07:36:45;97893.78;;;11.33;46.50
10464;BME280;5279;42.048;24.638;2023-12-29T07:39:12;97893.78;;;11.24;45.92
10464;BME280;5279;42.048;24.638;2023-12-29T07:41:39;97898.34;;;11.41;45.60
10464;BME280;5279;42.048;24.638;2023-12-29T07:44:07;97894.78;;;11.69;44.30
10464;BME280;5279;42.048;24.638;2023-12-29T07:46:34;97895.47;;;11.90;45.55
10464;BME280;5279;42.048;24.638;2023-12-29T07:49:00;97883.06;;;12.09;45.91
10464;BME280;5279;42.048;24.638;2023-12-29T07:51:29;97879.44;;;12.10;43.96
10464;BME280;5279;42.048;24.638;2023-12-29T07:53:55;97877.84;;;11.89;41.67
10464;BME280;5279;42.048;24.638;2023-12-29T07:56:22;97886.44;;;12.01;41.15
10464;BME280;5279;42.048;24.638;2023-12-29T07:58:49;97869.16;;;11.97;41.79
10464;BME280;5279;42.048;24.638;2023-12-29T08:01:16;97870.44;;;12.20;41.83
10464;BME280;5279;42.048;24.638;2023-12-29T08:03:43;97871.16;;;12.40;42.23
10464;BME280;5279;42.048;24.638;2023-12-29T08:06:10;97869.81;;;12.71;41.42
10464;BME280;5279;42.048;24.638;2023-12-29T08:08:39;97876.44;;;13.20;41.69
10464;BME280;5279;42.048;24.638;2023-12-29T08:11:06;97867.34;;;13.48;41.40
10464;BME280;5279;42.048;24.638;2023-12-29T08:13:38;97882.63;;;13.98;41.17
10464;BME280;5279;42.048;24.638;2023-12-29T08:16:05;97881.78;;;13.97;39.94
10464;BME280;5279;42.048;24.638;2023-12-29T08:18:33;97884.50;;;14.13;39.80
10464;BME280;5279;42.048;24.638;2023-12-29T08:21:00;97884.81;;;14.36;40.20
10464;BME280;5279;42.048;24.638;2023-12-29T08:23:26;97893.72;;;14.61;40.79
10464;BME280;5279;42.048;24.638;2023-12-29T08:25:56;97890.31;;;14.35;41.12
10464;BME280;5279;42.048;24.638;2023-12-29T08:28:22;97892.50;;;14.39;41.21
10464;BME280;5279;42.048;24.638;2023-12-29T08:30:49;97890.03;;;14.20;41.65
10464;BME280;5279;42.048;24.638;2023-12-29T08:33:16;97898.00;;;14.12;41.46
10464;BME280;5279;42.048;24.638;2023-12-29T08:35:43;97889.06;;;14.21;41.02
10464;BME280;5279;42.048;24.638;2023-12-29T08:38:11;97899.31;;;14.34;41.07
10464;BME280;5279;42.048;24.638;2023-12-29T08:40:37;97899.78;;;14.79;39.49
10464;BME280;5279;42.048;24.638;2023-12-29T08:43:05;97889.50;;;15.41;38.39
10464;BME280;5279;42.048;24.638;2023-12-29T08:45:32;97892.84;;;16.22;36.63
10464;BME280;5279;42.048;24.638;2023-12-29T08:47:58;97890.13;;;16.77;35.15
10464;BME280;5279;42.048;24.638;2023-12-29T08:50:25;97882.84;;;17.54;34.29
10464;BME280;5279;42.048;24.638;2023-12-29T08:52:52;97875.91;;;18.11;33.45
10464;BME280;5279;42.048;24.638;2023-12-29T08:55:18;97868.88;;;18.90;32.34
10464;BME280;5279;42.048;24.638;2023-12-29T08:57:45;97864.91;;;19.07;31.67
10464;BME280;5279;42.048;24.638;2023-12-29T09:00:14;97860.78;;;19.75;31.29
10464;BME280;5279;42.048;24.638;2023-12-29T09:02:40;97871.97;;;20.40;30.47
10464;BME280;5279;42.048;24.638;2023-12-29T09:05:08;97854.84;;;21.41;29.14
10464;BME280;5279;42.048;24.638;2023-12-29T09:07:34;97851.97;;;22.59;27.30
10464;BME280;5279;42.048;24.638;2023-12-29T09:10:01;97844.41;;;23.19;25.99
10464;BME280;5279;42.048;24.638;2023-12-29T09:12:28;97837.63;;;24.27;24.68
10464;BME280;5279;42.048;24.638;2023-12-29T09:14:55;97839.97;;;25.08;23.67
10464;BME280;5279;42.048;24.638;2023-12-29T09:17:23;97840.31;;;25.41;23.22
10464;BME280;5279;42.048;24.638;2023-12-29T09:19:50;97835.19;;;25.33;23.80
10464;BME280;5279;42.048;24.638;2023-12-29T09:22:16;97840.72;;;25.79;23.90
10464;BME280;5279;42.048;24.638;2023-12-29T09:24:43;97845.03;;;25.45;24.46
10464;BME280;5279;42.048;24.638;2023-12-29T09:27:10;97839.44;;;25.70;23.58
10464;BME280;5279;42.048;24.638;2023-12-29T09:29:38;97844.03;;;26.28;23.21
10464;BME280;5279;42.048;24.638;2023-12-29T09:32:05;97836.59;;;26.35;23.36
10464;BME280;5279;42.048;24.638;2023-12-29T09:34:33;97836.38;;;26.25;23.04
10464;BME280;5279;42.048;24.638;2023-12-29T09:37:00;97829.88;;;26.77;22.53
10464;BME280;5279;42.048;24.638;2023-12-29T09:39:27;97824.56;;;26.82;22.05
10464;BME280;5279;42.048;24.638;2023-12-29T09:41:59;97828.41;;;26.46;22.82
10464;BME280;5279;42.048;24.638;2023-12-29T09:44:27;97825.72;;;27.31;21.94
10464;BME280;5279;42.048;24.638;2023-12-29T09:46:54;97826.00;;;27.01;22.23
10464;BME280;5279;42.048;24.638;2023-12-29T09:49:21;97817.84;;;27.30;21.96
10464;BME280;5279;42.048;24.638;2023-12-29T09:51:51;97816.09;;;27.24;21.93
10464;BME280;5279;42.048;24.638;2023-12-29T09:54:18;97810.38;;;27.25;21.70
10464;BME280;5279;42.048;24.638;2023-12-29T09:56:45;97804.81;;;27.65;21.47
10464;BME280;5279;42.048;24.638;2023-12-29T09:59:13;97800.84;;;27.89;20.91
10464;BME280;5279;42.048;24.638;2023-12-29T10:01:41;97800.09;;;28.10;20.77
10464;BME280;5279;42.048;24.638;2023-12-29T10:04:08;97796.94;;;28.40;20.53
10464;BME280;5279;42.048;24.638;2023-12-29T10:06:36;97795.28;;;28.83;20.31
10464;BME280;5279;42.048;24.638;2023-12-29T10:09:07;97791.34;;;28.52;20.26
10464;BME280;5279;42.048;24.638;2023-12-29T10:11:37;97787.06;;;29.04;20.33
10464;BME280;5279;42.048;24.638;2023-12-29T10:14:13;97777.28;;;29.35;19.80
10464;BME280;5279;42.048;24.638;2023-12-29T10:16:49;97767.72;;;29.69;19.76
10464;BME280;5279;42.048;24.638;2023-12-29T10:19:25;97767.44;;;29.71;19.50
10464;BME280;5279;42.048;24.638;2023-12-29T10:21:57;97762.94;;;29.87;19.93
10464;BME280;5279;42.048;24.638;2023-12-29T10:24:29;97769.56;;;29.64;20.43
10464;BME280;5279;42.048;24.638;2023-12-29T10:26:56;97756.19;;;29.94;20.17
10464;BME280;5279;42.048;24.638;2023-12-29T10:29:23;97754.72;;;30.33;19.84
10464;BME280;5279;42.048;24.638;2023-12-29T10:31:52;97763.53;;;29.57;19.98
10464;BME280;5279;42.048;24.638;2023-12-29T10:34:19;97759.59;;;30.21;20.09
10464;BME280;5279;42.048;24.638;2023-12-29T10:36:47;97758.09;;;30.46;19.92
10464;BME280;5279;42.048;24.638;2023-12-29T10:39:14;97754.16;;;30.99;19.43
10464;BME280;5279;42.048;24.638;2023-12-29T10:41:43;97748.97;;;31.12;19.44
10464;BME280;5279;42.048;24.638;2023-12-29T10:44:09;97746.72;;;32.00;18.48
10464;BME280;5279;42.048;24.638;2023-12-29T10:46:36;97742.91;;;31.86;18.57
10464;BME280;5279;42.048;24.638;2023-12-29T10:49:07;97748.44;;;31.46;18.66
10464;BME280;5279;42.048;24.638;2023-12-29T10:51:35;97746.59;;;32.45;18.17
10464;BME280;5279;42.048;24.638;2023-12-29T10:54:02;97750.78;;;32.92;18.18
10464;BME280;5279;42.048;24.638;2023-12-29T10:56:29;97760.50;;;33.18;17.92
10464;BME280;5279;42.048;24.638;2023-12-29T10:59:02;97755.28;;;33.50;17.75
10464;BME280;5279;42.048;24.638;2023-12-29T11:01:29;97751.75;;;33.79;17.46
10464;BME280;5279;42.048;24.638;2023-12-29T11:03:58;97749.09;;;33.69;17.51
10464;BME280;5279;42.048;24.638;2023-12-29T11:06:26;97738.47;;;33.28;17.77
10464;BME280;5279;42.048;24.638;2023-12-29T11:08:53;97738.31;;;33.43;17.41
10464;BME280;5279;42.048;24.638;2023-12-29T11:11:20;97731.25;;;33.95;16.87
10464;BME280;5279;42.048;24.638;2023-12-29T11:13:48;97726.09;;;34.36;16.92
10464;BME280;5279;42.048;24.638;2023-12-29T11:16:16;97726.84;;;34.41;16.25
10464;BME280;5279;42.048;24.638;2023-12-29T11:18:47;97713.31;;;34.69;16.38
10464;BME280;5279;42.048;24.638;2023-12-29T11:21:16;97727.16;;;35.01;16.05
10464;BME280;5279;42.048;24.638;2023-12-29T11:23:44;97703.34;;;34.73;16.14
10464;BME280;5279;42.048;24.638;2023-12-29T11:26:11;97709.38;;;34.93;15.52
10464;BME280;5279;42.048;24.638;2023-12-29T11:28:38;97705.13;;;34.64;15.80
10464;BME280;5279;42.048;24.638;2023-12-29T11:31:05;97709.72;;;33.44;16.03
10464;BME280;5279;42.048;24.638;2023-12-29T11:33:37;97700.66;;;34.01;15.75
10464;BME280;5279;42.048;24.638;2023-12-29T11:36:10;97707.78;;;35.06;14.79
10464;BME280;5279;42.048;24.638;2023-12-29T11:38:47;97709.56;;;35.34;15.24
10464;BME280;5279;42.048;24.638;2023-12-29T11:41:19;97707.00;;;35.56;15.48
10464;BME280;5279;42.048;24.638;2023-12-29T11:43:56;97697.88;;;36.02;15.17
10464;BME280;5279;42.048;24.638;2023-12-29T11:46:33;97686.84;;;36.02;14.76
10464;BME280;5279;42.048;24.638;2023-12-29T11:49:02;97694.19;;;36.47;14.46
10464;BME280;5279;42.048;24.638;2023-12-29T11:51:31;97696.56;;;36.40;14.42
10464;BME280;5279;42.048;24.638;2023-12-29T11:53:58;97696.34;;;37.00;14.13
10464;BME280;5279;42.048;24.638;2023-12-29T11:56:30;97695.44;;;37.49;13.96
10464;BME280;5279;42.048;24.638;2023-12-29T11:59:12;97679.81;;;38.06;13.67
10464;BME280;5279;42.048;24.638;2023-12-29T12:01:38;97681.59;;;38.02;13.10
10464;BME280;5279;42.048;24.638;2023-12-29T12:04:33;97687.03;;;38.24;13.57
10464;BME280;5279;42.048;24.638;2023-12-29T12:07:00;97683.72;;;37.74;13.70
10464;BME280;5279;42.048;24.638;2023-12-29T12:09:27;97683.06;;;38.56;13.11
10464;BME280;5279;42.048;24.638;2023-12-29T12:11:53;97677.38;;;38.69;12.99
10464;BME280;5279;42.048;24.638;2023-12-29T12:14:45;97678.97;;;38.36;13.21
10464;BME280;5279;42.048;24.638;2023-12-29T12:17:12;97684.00;;;38.43;13.04
10464;BME280;5279;42.048;24.638;2023-12-29T12:19:56;97676.34;;;38.40;13.12
10464;BME280;5279;42.048;24.638;2023-12-29T12:22:24;97685.34;;;38.54;13.28
10464;BME280;5279;42.048;24.638;2023-12-29T12:24:55;97683.72;;;38.05;13.11
10464;BME280;5279;42.048;24.638;2023-12-29T12:27:22;97684.56;;;37.52;13.45
10464;BME280;5279;42.048;24.638;2023-12-29T12:29:52;97679.44;;;37.99;13.29
10464;BME280;5279;42.048;24.638;2023-12-29T12:32:21;97679.94;;;38.01;13.67
10464;BME280;5279;42.048;24.638;2023-12-29T12:34:48;97683.88;;;37.47;13.71
10464;BME280;5279;42.048;24.638;2023-12-29T12:37:20;97686.91;;;37.90;13.29
10464;BME280;5279;42.048;24.638;2023-12-29T12:39:47;97681.75;;;38.45;13.12
10464;BME280;5279;42.048;24.638;2023-12-29T12:42:13;97669.91;;;38.78;13.00
10464;BME280;5279;42.048;24.638;2023-12-29T12:44:42;97686.41;;;38.27;13.10
10464;BME280;5279;42.048;24.638;2023-12-29T12:47:17;97678.69;;;38.15;13.05
10464;BME280;5279;42.048;24.638;2023-12-29T12:49:45;97681.41;;;38.46;13.28
10464;BME280;5279;42.048;24.638;2023-12-29T12:52:12;97682.28;;;38.72;12.92
10464;BME280;5279;42.048;24.638;2023-12-29T12:54:41;97687.84;;;38.90;12.81
10464;BME280;5279;42.048;24.638;2023-12-29T12:57:08;97679.31;;;38.60;12.87
10464;BME280;5279;42.048;24.638;2023-12-29T12:59:34;97684.00;;;38.43;12.83
10464;BME280;5279;42.048;24.638;2023-12-29T13:02:02;97666.47;;;38.08;12.99
10464;BME280;5279;42.048;24.638;2023-12-29T13:04:30;97681.78;;;37.83;13.27
10464;BME280;5279;42.048;24.638;2023-12-29T13:06:58;97677.53;;;38.08;13.41
10464;BME280;5279;42.048;24.638;2023-12-29T13:09:25;97678.28;;;37.60;13.12